Grover Beach, CA (93433)

00:41 PDT le 31 octobre 2014 (GMT -0700)
Sierra Drive and Hillcrest | Change Station
CLOSE
Current Station
Stations météorologiques personnelles
Location: Arroyo Grande, CA
Altitude: 249 ft
Stations météo à proximité
Avis météorologiques actifs: Special Statement

Alt. 249 ft 35.13 °N, 120.60 °W | Updated 5 minutes ago

Nuageux
Nuageux
59.9 ° F
Paraît 59.9 ° F
N
0.0
Vent Variable Vent de NNE

Aujourd'hui
Haut(e) -- | Bas -- ° F
--% Risque de précip.
Hier
Haut(e) -- | Bas -- ° F
Precip. -- pouce
7:22 AM 6:08 PM
Premier quartier, 52% visible
Pression 29.95 pouce
Visibilité 10.0 Miles terrestres
Nuages Couvert 1600 ft
Point de rosée 59 ° F
Humidité 98%
Précipitations 0.00 pouce
Profondeur de la couche neigeuse Non disponible.
UV 0 sur 12
Pollen 3.80 sur 12
Qualité de l'air Non disponible.
Flu Activity Non disponible.
METAR KSBP 310656Z AUTO 13004KT 10SM OVC016 16/13 A2995 RMK AO2 SLP140 T01610133

More Conditions Fewer Conditions

Pression 29.95 pouce
Visibilité 10.0 Miles terrestres
Nuages Couvert 1600 ft
Point de rosée 59 ° F
Humidité 98%
Précipitations 0.00 pouce
Profondeur de la couche neigeuse Non disponible.
UV 0 sur 12
Pollen 3.80 sur 12
Qualité de l'air Non disponible.
Flu Activity Non disponible.
METAR KSBP 310656Z AUTO 13004KT 10SM OVC016 16/13 A2995 RMK AO2 SLP140 T01610133

More Conditions Fewer Conditions

10-Day Weather Forecast

Almanac

Astronomie

Oct. 31, 2014 Lever Coucher
Temps réel
Crépuscule civil
Crépuscule nautique
Crépuscule astronomique
Lune
Durée de lumière visible
Longueur du jour
Tomorrow will be .
, % of the Moon is Illuminated

Extrêmes aujourd'hui

State Highs State Lows

Community

WunderPhotos

Upload Photos

1,766,573 Photos téléchargées !

WunderBlogs® & News

Nearby

Qualité de l'air

  Qualité de l'air Indice de la qualité de l'air Polluant
Not available.

Épaisseur de neige

Station Depth Altitude

Activité sismique

Ville Distance Mag. Time & Date
Minimum magnitude displayed is 2.5.

Températures des eaux côtières

Lieu Température

Stations météo à proximité